sensor_id;sensor_type;location;lat;lon;timestamp;P1;durP1;ratioP1;P2;durP2;ratioP2
73023;SDS011;61199;47.526;8.538;2023-07-02T00:01:49;6.93;;;2.90;;
73023;SDS011;61199;47.526;8.538;2023-07-02T00:04:16;4.80;;;3.20;;
73023;SDS011;61199;47.526;8.538;2023-07-02T00:06:43;5.83;;;2.83;;
73023;SDS011;61199;47.526;8.538;2023-07-02T00:09:10;3.67;;;2.67;;
73023;SDS011;61199;47.526;8.538;2023-07-02T00:11:37;10.23;;;3.00;;
73023;SDS011;61199;47.526;8.538;2023-07-02T00:14:05;6.63;;;2.70;;
73023;SDS011;61199;47.526;8.538;2023-07-02T00:16:34;5.30;;;2.80;;
73023;SDS011;61199;47.526;8.538;2023-07-02T00:19:01;4.50;;;2.53;;
73023;SDS011;61199;47.526;8.538;2023-07-02T00:21:28;6.83;;;3.23;;
73023;SDS011;61199;47.526;8.538;2023-07-02T00:23:55;5.20;;;2.97;;
73023;SDS011;61199;47.526;8.538;2023-07-02T00:26:24;4.57;;;3.10;;
73023;SDS011;61199;47.526;8.538;2023-07-02T00:28:52;4.40;;;2.90;;
73023;SDS011;61199;47.526;8.538;2023-07-02T00:31:20;9.00;;;2.90;;
73023;SDS011;61199;47.526;8.538;2023-07-02T00:33:47;4.17;;;3.00;;
73023;SDS011;61199;47.526;8.538;2023-07-02T00:36:14;5.90;;;2.90;;
73023;SDS011;61199;47.526;8.538;2023-07-02T00:38:44;3.97;;;2.93;;
73023;SDS011;61199;47.526;8.538;2023-07-02T00:41:13;5.30;;;2.47;;
73023;SDS011;61199;47.526;8.538;2023-07-02T00:43:39;5.63;;;2.63;;
73023;SDS011;61199;47.526;8.538;2023-07-02T00:46:16;4.80;;;2.27;;
73023;SDS011;61199;47.526;8.538;2023-07-02T00:48:47;4.93;;;3.30;;
73023;SDS011;61199;47.526;8.538;2023-07-02T00:51:15;4.07;;;2.20;;
73023;SDS011;61199;47.526;8.538;2023-07-02T00:53:44;6.67;;;2.33;;
73023;SDS011;61199;47.526;8.538;2023-07-02T00:56:11;2.57;;;2.37;;
73023;SDS011;61199;47.526;8.538;2023-07-02T00:58:39;6.83;;;3.50;;
73023;SDS011;61199;47.526;8.538;2023-07-02T01:01:13;4.40;;;2.80;;
73023;SDS011;61199;47.526;8.538;2023-07-02T01:03:55;6.27;;;3.30;;
73023;SDS011;61199;47.526;8.538;2023-07-02T01:06:32;4.30;;;2.93;;
73023;SDS011;61199;47.526;8.538;2023-07-02T01:09:01;3.83;;;2.80;;
73023;SDS011;61199;47.526;8.538;2023-07-02T01:11:30;6.60;;;2.77;;
73023;SDS011;61199;47.526;8.538;2023-07-02T01:14:04;3.90;;;2.70;;
73023;SDS011;61199;47.526;8.538;2023-07-02T01:16:34;3.70;;;2.80;;
73023;SDS011;61199;47.526;8.538;2023-07-02T01:19:03;4.30;;;2.73;;
73023;SDS011;61199;47.526;8.538;2023-07-02T01:21:35;3.60;;;2.70;;
73023;SDS011;61199;47.526;8.538;2023-07-02T01:24:02;8.33;;;2.90;;
73023;SDS011;61199;47.526;8.538;2023-07-02T01:26:32;2.70;;;2.50;;
73023;SDS011;61199;47.526;8.538;2023-07-02T01:29:00;4.20;;;2.70;;
73023;SDS011;61199;47.526;8.538;2023-07-02T01:31:39;4.00;;;2.60;;
73023;SDS011;61199;47.526;8.538;2023-07-02T01:34:06;5.93;;;3.00;;
73023;SDS011;61199;47.526;8.538;2023-07-02T01:36:34;3.87;;;2.80;;
73023;SDS011;61199;47.526;8.538;2023-07-02T01:39:01;3.70;;;2.73;;
73023;SDS011;61199;47.526;8.538;2023-07-02T01:41:27;4.60;;;3.03;;
73023;SDS011;61199;47.526;8.538;2023-07-02T01:43:54;4.97;;;3.33;;
73023;SDS011;61199;47.526;8.538;2023-07-02T01:46:20;6.20;;;3.97;;
73023;SDS011;61199;47.526;8.538;2023-07-02T01:48:47;4.20;;;3.00;;
73023;SDS011;61199;47.526;8.538;2023-07-02T01:51:14;5.20;;;4.13;;
73023;SDS011;61199;47.526;8.538;2023-07-02T01:53:40;5.43;;;3.53;;
73023;SDS011;61199;47.526;8.538;2023-07-02T01:56:06;6.83;;;3.90;;
73023;SDS011;61199;47.526;8.538;2023-07-02T01:58:33;5.77;;;4.07;;
73023;SDS011;61199;47.526;8.538;2023-07-02T02:00:59;8.70;;;4.80;;
73023;SDS011;61199;47.526;8.538;2023-07-02T02:03:26;4.67;;;4.03;;
73023;SDS011;61199;47.526;8.538;2023-07-02T02:05:52;8.70;;;4.83;;
73023;SDS011;61199;47.526;8.538;2023-07-02T02:08:19;9.20;;;5.17;;
73023;SDS011;61199;47.526;8.538;2023-07-02T02:10:45;6.17;;;4.93;;
73023;SDS011;61199;47.526;8.538;2023-07-02T02:13:12;9.97;;;4.77;;
73023;SDS011;61199;47.526;8.538;2023-07-02T02:15:38;8.03;;;4.70;;
73023;SDS011;61199;47.526;8.538;2023-07-02T02:18:05;7.20;;;4.90;;
73023;SDS011;61199;47.526;8.538;2023-07-02T02:20:32;7.30;;;4.93;;
73023;SDS011;61199;47.526;8.538;2023-07-02T02:22:59;5.97;;;4.40;;
73023;SDS011;61199;47.526;8.538;2023-07-02T02:25:25;7.13;;;4.87;;
73023;SDS011;61199;47.526;8.538;2023-07-02T02:27:52;7.47;;;4.93;;
73023;SDS011;61199;47.526;8.538;2023-07-02T02:30:18;6.37;;;4.50;;
73023;SDS011;61199;47.526;8.538;2023-07-02T02:32:44;7.33;;;4.43;;
73023;SDS011;61199;47.526;8.538;2023-07-02T02:35:11;6.23;;;4.37;;
73023;SDS011;61199;47.526;8.538;2023-07-02T02:37:38;6.20;;;5.00;;
73023;SDS011;61199;47.526;8.538;2023-07-02T02:40:06;7.43;;;4.60;;
73023;SDS011;61199;47.526;8.538;2023-07-02T02:42:35;9.23;;;5.50;;
73023;SDS011;61199;47.526;8.538;2023-07-02T02:45:02;10.97;;;5.00;;
73023;SDS011;61199;47.526;8.538;2023-07-02T02:47:29;6.53;;;4.80;;
73023;SDS011;61199;47.526;8.538;2023-07-02T02:49:56;6.40;;;4.77;;
73023;SDS011;61199;47.526;8.538;2023-07-02T02:52:22;8.63;;;4.93;;
73023;SDS011;61199;47.526;8.538;2023-07-02T02:54:49;6.97;;;4.87;;
73023;SDS011;61199;47.526;8.538;2023-07-02T02:57:16;8.40;;;5.17;;
73023;SDS011;61199;47.526;8.538;2023-07-02T02:59:42;8.87;;;5.40;;
73023;SDS011;61199;47.526;8.538;2023-07-02T03:02:09;7.13;;;5.10;;
73023;SDS011;61199;47.526;8.538;2023-07-02T03:04:35;7.73;;;4.50;;
73023;SDS011;61199;47.526;8.538;2023-07-02T03:07:06;11.80;;;5.03;;
73023;SDS011;61199;47.526;8.538;2023-07-02T03:09:33;11.03;;;5.67;;
73023;SDS011;61199;47.526;8.538;2023-07-02T03:12:00;13.40;;;5.30;;
73023;SDS011;61199;47.526;8.538;2023-07-02T03:14:26;8.53;;;5.00;;
73023;SDS011;61199;47.526;8.538;2023-07-02T03:16:53;8.47;;;5.93;;
73023;SDS011;61199;47.526;8.538;2023-07-02T03:19:19;11.53;;;6.73;;
73023;SDS011;61199;47.526;8.538;2023-07-02T03:21:46;10.43;;;6.30;;
73023;SDS011;61199;47.526;8.538;2023-07-02T03:24:12;13.10;;;7.03;;
73023;SDS011;61199;47.526;8.538;2023-07-02T03:26:39;14.63;;;8.27;;
73023;SDS011;61199;47.526;8.538;2023-07-02T03:29:06;23.27;;;8.90;;
73023;SDS011;61199;47.526;8.538;2023-07-02T03:31:33;16.60;;;9.00;;
73023;SDS011;61199;47.526;8.538;2023-07-02T03:34:03;20.13;;;9.60;;
73023;SDS011;61199;47.526;8.538;2023-07-02T03:36:32;23.63;;;10.23;;
73023;SDS011;61199;47.526;8.538;2023-07-02T03:38:58;34.13;;;9.40;;
73023;SDS011;61199;47.526;8.538;2023-07-02T03:41:25;13.30;;;8.73;;
73023;SDS011;61199;47.526;8.538;2023-07-02T03:43:51;16.10;;;8.47;;
73023;SDS011;61199;47.526;8.538;2023-07-02T03:46:18;17.40;;;9.63;;
73023;SDS011;61199;47.526;8.538;2023-07-02T03:48:44;17.33;;;8.27;;
73023;SDS011;61199;47.526;8.538;2023-07-02T03:51:11;14.73;;;7.20;;
73023;SDS011;61199;47.526;8.538;2023-07-02T03:53:41;14.83;;;7.37;;
73023;SDS011;61199;47.526;8.538;2023-07-02T03:56:07;14.00;;;7.50;;
73023;SDS011;61199;47.526;8.538;2023-07-02T03:58:34;13.87;;;7.60;;
73023;SDS011;61199;47.526;8.538;2023-07-02T04:01:00;22.30;;;7.90;;
73023;SDS011;61199;47.526;8.538;2023-07-02T04:03:27;12.97;;;7.20;;
73023;SDS011;61199;47.526;8.538;2023-07-02T04:05:53;13.90;;;7.20;;
73023;SDS011;61199;47.526;8.538;2023-07-02T04:08:20;18.90;;;7.70;;
73023;SDS011;61199;47.526;8.538;2023-07-02T04:10:47;13.90;;;7.37;;
73023;SDS011;61199;47.526;8.538;2023-07-02T04:13:14;15.70;;;8.10;;
73023;SDS011;61199;47.526;8.538;2023-07-02T04:15:40;15.73;;;8.00;;
73023;SDS011;61199;47.526;8.538;2023-07-02T04:18:06;14.30;;;7.70;;
73023;SDS011;61199;47.526;8.538;2023-07-02T04:20:33;17.80;;;8.33;;
73023;SDS011;61199;47.526;8.538;2023-07-02T04:23:00;17.53;;;8.73;;
73023;SDS011;61199;47.526;8.538;2023-07-02T04:25:27;19.07;;;9.80;;
73023;SDS011;61199;47.526;8.538;2023-07-02T04:28:02;21.00;;;9.27;;
73023;SDS011;61199;47.526;8.538;2023-07-02T04:30:28;18.67;;;9.20;;
73023;SDS011;61199;47.526;8.538;2023-07-02T04:32:55;19.50;;;9.57;;
73023;SDS011;61199;47.526;8.538;2023-07-02T04:35:21;19.80;;;9.80;;
73023;SDS011;61199;47.526;8.538;2023-07-02T04:37:47;19.53;;;10.40;;
73023;SDS011;61199;47.526;8.538;2023-07-02T04:40:14;21.80;;;10.90;;
73023;SDS011;61199;47.526;8.538;2023-07-02T04:42:41;21.30;;;10.93;;
73023;SDS011;61199;47.526;8.538;2023-07-02T04:45:13;22.83;;;11.40;;
73023;SDS011;61199;47.526;8.538;2023-07-02T04:47:43;18.97;;;10.53;;
73023;SDS011;61199;47.526;8.538;2023-07-02T04:50:11;27.03;;;11.27;;
73023;SDS011;61199;47.526;8.538;2023-07-02T04:52:40;25.57;;;12.70;;
73023;SDS011;61199;47.526;8.538;2023-07-02T04:55:07;22.73;;;11.50;;
73023;SDS011;61199;47.526;8.538;2023-07-02T04:57:34;29.83;;;11.63;;
73023;SDS011;61199;47.526;8.538;2023-07-02T05:00:00;25.10;;;11.20;;
73023;SDS011;61199;47.526;8.538;2023-07-02T05:02:27;24.47;;;11.03;;
73023;SDS011;61199;47.526;8.538;2023-07-02T05:04:53;18.93;;;10.43;;
73023;SDS011;61199;47.526;8.538;2023-07-02T05:07:20;21.83;;;10.50;;
73023;SDS011;61199;47.526;8.538;2023-07-02T05:09:46;20.63;;;9.93;;
73023;SDS011;61199;47.526;8.538;2023-07-02T05:12:14;19.03;;;11.00;;
73023;SDS011;61199;47.526;8.538;2023-07-02T05:14:41;24.57;;;9.77;;
73023;SDS011;61199;47.526;8.538;2023-07-02T05:17:07;26.40;;;10.70;;
73023;SDS011;61199;47.526;8.538;2023-07-02T05:19:34;24.97;;;11.30;;
73023;SDS011;61199;47.526;8.538;2023-07-02T05:22:00;23.30;;;10.53;;
73023;SDS011;61199;47.526;8.538;2023-07-02T05:24:26;21.70;;;11.13;;
73023;SDS011;61199;47.526;8.538;2023-07-02T05:26:53;17.17;;;10.23;;
73023;SDS011;61199;47.526;8.538;2023-07-02T05:29:19;18.90;;;9.83;;
73023;SDS011;61199;47.526;8.538;2023-07-02T05:31:46;21.30;;;10.67;;
73023;SDS011;61199;47.526;8.538;2023-07-02T05:34:12;19.27;;;9.80;;
73023;SDS011;61199;47.526;8.538;2023-07-02T05:36:39;17.20;;;9.37;;
73023;SDS011;61199;47.526;8.538;2023-07-02T05:39:05;22.80;;;11.40;;
73023;SDS011;61199;47.526;8.538;2023-07-02T05:41:32;18.73;;;9.90;;
73023;SDS011;61199;47.526;8.538;2023-07-02T05:43:58;21.37;;;9.80;;
73023;SDS011;61199;47.526;8.538;2023-07-02T05:46:24;18.87;;;9.10;;
73023;SDS011;61199;47.526;8.538;2023-07-02T05:48:51;20.60;;;10.10;;
73023;SDS011;61199;47.526;8.538;2023-07-02T05:51:21;16.77;;;9.27;;
73023;SDS011;61199;47.526;8.538;2023-07-02T05:53:48;18.47;;;9.67;;
73023;SDS011;61199;47.526;8.538;2023-07-02T05:56:14;21.33;;;9.50;;
73023;SDS011;61199;47.526;8.538;2023-07-02T05:58:41;22.70;;;9.13;;
73023;SDS011;61199;47.526;8.538;2023-07-02T06:01:13;22.43;;;10.50;;
73023;SDS011;61199;47.526;8.538;2023-07-02T06:03:40;21.33;;;10.43;;
73023;SDS011;61199;47.526;8.538;2023-07-02T06:06:07;24.53;;;9.97;;
73023;SDS011;61199;47.526;8.538;2023-07-02T06:08:33;23.40;;;10.47;;
73023;SDS011;61199;47.526;8.538;2023-07-02T06:10:59;16.90;;;9.93;;
73023;SDS011;61199;47.526;8.538;2023-07-02T06:13:26;20.47;;;10.70;;
73023;SDS011;61199;47.526;8.538;2023-07-02T06:15:52;22.73;;;11.30;;
73023;SDS011;61199;47.526;8.538;2023-07-02T06:18:19;31.67;;;12.57;;
73023;SDS011;61199;47.526;8.538;2023-07-02T06:20:45;26.33;;;12.67;;
73023;SDS011;61199;47.526;8.538;2023-07-02T06:23:13;31.40;;;14.33;;
73023;SDS011;61199;47.526;8.538;2023-07-02T06:25:39;32.07;;;14.47;;
73023;SDS011;61199;47.526;8.538;2023-07-02T06:28:05;33.40;;;16.07;;
73023;SDS011;61199;47.526;8.538;2023-07-02T06:30:32;38.50;;;16.90;;
73023;SDS011;61199;47.526;8.538;2023-07-02T06:32:58;31.50;;;16.43;;
73023;SDS011;61199;47.526;8.538;2023-07-02T06:35:25;36.00;;;16.73;;
73023;SDS011;61199;47.526;8.538;2023-07-02T06:37:51;44.30;;;18.87;;
73023;SDS011;61199;47.526;8.538;2023-07-02T06:40:17;37.30;;;16.33;;
73023;SDS011;61199;47.526;8.538;2023-07-02T06:42:44;31.83;;;16.47;;
73023;SDS011;61199;47.526;8.538;2023-07-02T06:45:10;32.20;;;16.90;;
73023;SDS011;61199;47.526;8.538;2023-07-02T06:47:37;44.47;;;18.47;;
73023;SDS011;61199;47.526;8.538;2023-07-02T06:50:04;39.60;;;18.27;;
73023;SDS011;61199;47.526;8.538;2023-07-02T06:52:31;33.83;;;16.30;;
73023;SDS011;61199;47.526;8.538;2023-07-02T06:54:57;44.70;;;18.77;;
73023;SDS011;61199;47.526;8.538;2023-07-02T06:57:23;40.90;;;18.87;;
73023;SDS011;61199;47.526;8.538;2023-07-02T06:59:50;43.87;;;19.97;;
73023;SDS011;61199;47.526;8.538;2023-07-02T07:02:17;47.93;;;20.30;;
73023;SDS011;61199;47.526;8.538;2023-07-02T07:04:43;47.80;;;19.83;;
73023;SDS011;61199;47.526;8.538;2023-07-02T07:07:10;39.97;;;19.23;;
73023;SDS011;61199;47.526;8.538;2023-07-02T07:09:36;59.90;;;20.67;;
73023;SDS011;61199;47.526;8.538;2023-07-02T07:12:03;40.13;;;19.40;;
73023;SDS011;61199;47.526;8.538;2023-07-02T07:14:29;44.43;;;19.43;;
73023;SDS011;61199;47.526;8.538;2023-07-02T07:16:56;49.87;;;20.03;;
73023;SDS011;61199;47.526;8.538;2023-07-02T07:19:22;45.27;;;21.20;;
73023;SDS011;61199;47.526;8.538;2023-07-02T07:21:49;43.47;;;20.27;;
73023;SDS011;61199;47.526;8.538;2023-07-02T07:24:15;50.20;;;20.80;;
73023;SDS011;61199;47.526;8.538;2023-07-02T07:26:41;43.30;;;20.60;;
73023;SDS011;61199;47.526;8.538;2023-07-02T07:29:08;52.33;;;20.80;;
73023;SDS011;61199;47.526;8.538;2023-07-02T07:31:34;51.27;;;21.47;;
73023;SDS011;61199;47.526;8.538;2023-07-02T07:34:01;42.23;;;19.17;;
73023;SDS011;61199;47.526;8.538;2023-07-02T07:36:27;39.73;;;20.57;;
73023;SDS011;61199;47.526;8.538;2023-07-02T07:38:54;48.37;;;21.00;;
73023;SDS011;61199;47.526;8.538;2023-07-02T07:41:22;42.97;;;21.40;;
73023;SDS011;61199;47.526;8.538;2023-07-02T07:43:49;50.50;;;20.80;;
73023;SDS011;61199;47.526;8.538;2023-07-02T07:46:15;49.63;;;20.97;;
73023;SDS011;61199;47.526;8.538;2023-07-02T07:48:42;62.50;;;24.50;;
73023;SDS011;61199;47.526;8.538;2023-07-02T07:51:09;51.10;;;21.90;;
73023;SDS011;61199;47.526;8.538;2023-07-02T07:53:38;63.50;;;21.70;;
73023;SDS011;61199;47.526;8.538;2023-07-02T07:56:05;49.60;;;20.90;;
73023;SDS011;61199;47.526;8.538;2023-07-02T07:58:32;51.37;;;21.77;;
73023;SDS011;61199;47.526;8.538;2023-07-02T08:00:58;56.20;;;24.60;;
73023;SDS011;61199;47.526;8.538;2023-07-02T08:03:25;53.50;;;23.47;;
73023;SDS011;61199;47.526;8.538;2023-07-02T08:05:51;53.53;;;23.00;;
73023;SDS011;61199;47.526;8.538;2023-07-02T08:08:18;52.17;;;24.50;;
73023;SDS011;61199;47.526;8.538;2023-07-02T08:10:44;54.13;;;22.20;;
73023;SDS011;61199;47.526;8.538;2023-07-02T08:13:13;55.27;;;24.10;;
73023;SDS011;61199;47.526;8.538;2023-07-02T08:15:39;54.37;;;22.90;;
73023;SDS011;61199;47.526;8.538;2023-07-02T08:18:05;54.73;;;22.67;;
73023;SDS011;61199;47.526;8.538;2023-07-02T08:20:33;48.43;;;21.93;;
73023;SDS011;61199;47.526;8.538;2023-07-02T08:23:00;49.27;;;22.23;;
73023;SDS011;61199;47.526;8.538;2023-07-02T08:25:26;50.40;;;23.07;;
73023;SDS011;61199;47.526;8.538;2023-07-02T08:27:53;55.10;;;24.57;;
73023;SDS011;61199;47.526;8.538;2023-07-02T08:30:19;65.03;;;26.47;;
73023;SDS011;61199;47.526;8.538;2023-07-02T08:32:46;55.03;;;26.03;;
73023;SDS011;61199;47.526;8.538;2023-07-02T08:35:13;58.10;;;25.50;;
73023;SDS011;61199;47.526;8.538;2023-07-02T08:37:39;60.67;;;25.20;;
73023;SDS011;61199;47.526;8.538;2023-07-02T08:40:18;56.20;;;25.10;;
73023;SDS011;61199;47.526;8.538;2023-07-02T08:42:45;60.30;;;25.83;;
73023;SDS011;61199;47.526;8.538;2023-07-02T08:45:16;50.83;;;26.20;;
73023;SDS011;61199;47.526;8.538;2023-07-02T08:47:43;50.47;;;25.50;;
73023;SDS011;61199;47.526;8.538;2023-07-02T08:50:12;54.00;;;24.53;;
73023;SDS011;61199;47.526;8.538;2023-07-02T08:52:39;60.87;;;26.40;;
73023;SDS011;61199;47.526;8.538;2023-07-02T08:55:06;62.00;;;28.47;;
73023;SDS011;61199;47.526;8.538;2023-07-02T08:57:34;64.23;;;27.90;;
73023;SDS011;61199;47.526;8.538;2023-07-02T09:00:03;67.57;;;28.30;;
73023;SDS011;61199;47.526;8.538;2023-07-02T09:02:36;70.83;;;27.33;;
73023;SDS011;61199;47.526;8.538;2023-07-02T09:05:03;61.23;;;26.80;;
73023;SDS011;61199;47.526;8.538;2023-07-02T09:07:30;65.70;;;27.03;;
73023;SDS011;61199;47.526;8.538;2023-07-02T09:09:56;64.33;;;28.73;;
73023;SDS011;61199;47.526;8.538;2023-07-02T09:12:27;67.83;;;28.30;;
73023;SDS011;61199;47.526;8.538;2023-07-02T09:15:02;49.13;;;24.63;;
73023;SDS011;61199;47.526;8.538;2023-07-02T09:17:36;47.60;;;22.80;;
73023;SDS011;61199;47.526;8.538;2023-07-02T09:20:06;46.13;;;22.10;;
73023;SDS011;61199;47.526;8.538;2023-07-02T09:22:34;50.40;;;23.87;;
73023;SDS011;61199;47.526;8.538;2023-07-02T09:25:02;52.33;;;23.90;;
73023;SDS011;61199;47.526;8.538;2023-07-02T09:27:39;40.13;;;19.93;;
73023;SDS011;61199;47.526;8.538;2023-07-02T09:32:34;35.73;;;18.40;;
73023;SDS011;61199;47.526;8.538;2023-07-02T09:35:01;35.00;;;18.53;;
73023;SDS011;61199;47.526;8.538;2023-07-02T09:37:28;37.67;;;18.63;;
73023;SDS011;61199;47.526;8.538;2023-07-02T09:39:55;35.83;;;18.60;;
73023;SDS011;61199;47.526;8.538;2023-07-02T09:42:22;45.83;;;20.30;;
73023;SDS011;61199;47.526;8.538;2023-07-02T09:44:51;41.47;;;21.60;;
73023;SDS011;61199;47.526;8.538;2023-07-02T09:47:18;44.00;;;20.17;;
73023;SDS011;61199;47.526;8.538;2023-07-02T09:49:49;37.20;;;19.63;;
73023;SDS011;61199;47.526;8.538;2023-07-02T09:52:21;45.50;;;20.30;;
73023;SDS011;61199;47.526;8.538;2023-07-02T09:54:48;38.70;;;19.57;;
73023;SDS011;61199;47.526;8.538;2023-07-02T09:57:15;42.50;;;20.37;;
73023;SDS011;61199;47.526;8.538;2023-07-02T09:59:41;41.30;;;18.87;;
73023;SDS011;61199;47.526;8.538;2023-07-02T10:02:09;42.33;;;18.80;;
73023;SDS011;61199;47.526;8.538;2023-07-02T10:04:40;29.63;;;16.80;;
73023;SDS011;61199;47.526;8.538;2023-07-02T10:07:07;31.33;;;17.13;;
73023;SDS011;61199;47.526;8.538;2023-07-02T10:09:34;32.57;;;16.80;;
73023;SDS011;61199;47.526;8.538;2023-07-02T10:12:14;35.83;;;17.13;;
73023;SDS011;61199;47.526;8.538;2023-07-02T10:14:45;31.90;;;16.63;;
73023;SDS011;61199;47.526;8.538;2023-07-02T10:17:28;33.27;;;17.10;;
73023;SDS011;61199;47.526;8.538;2023-07-02T10:19:58;32.93;;;16.90;;
73023;SDS011;61199;47.526;8.538;2023-07-02T10:22:26;33.17;;;16.00;;
73023;SDS011;61199;47.526;8.538;2023-07-02T10:24:57;32.40;;;16.53;;
73023;SDS011;61199;47.526;8.538;2023-07-02T10:27:39;37.30;;;17.57;;
73023;SDS011;61199;47.526;8.538;2023-07-02T10:30:08;36.40;;;18.17;;
73023;SDS011;61199;47.526;8.538;2023-07-02T10:32:36;37.70;;;19.13;;
73023;SDS011;61199;47.526;8.538;2023-07-02T10:35:14;32.87;;;18.80;;
73023;SDS011;61199;47.526;8.538;2023-07-02T10:37:41;34.30;;;18.20;;
73023;SDS011;61199;47.526;8.538;2023-07-02T10:40:08;47.97;;;19.90;;
73023;SDS011;61199;47.526;8.538;2023-07-02T10:42:45;35.87;;;19.10;;
73023;SDS011;61199;47.526;8.538;2023-07-02T10:45:15;33.03;;;17.33;;
73023;SDS011;61199;47.526;8.538;2023-07-02T10:47:42;41.63;;;19.10;;
73023;SDS011;61199;47.526;8.538;2023-07-02T10:52:42;38.80;;;18.70;;
73023;SDS011;61199;47.526;8.538;2023-07-02T10:55:09;30.53;;;17.53;;
73023;SDS011;61199;47.526;8.538;2023-07-02T10:57:35;27.53;;;15.53;;
73023;SDS011;61199;47.526;8.538;2023-07-02T11:00:05;31.80;;;16.60;;
73023;SDS011;61199;47.526;8.538;2023-07-02T11:02:38;34.80;;;16.90;;
73023;SDS011;61199;47.526;8.538;2023-07-02T11:05:06;28.97;;;15.87;;
73023;SDS011;61199;47.526;8.538;2023-07-02T11:07:38;30.40;;;17.03;;
73023;SDS011;61199;47.526;8.538;2023-07-02T11:10:09;35.90;;;17.23;;
73023;SDS011;61199;47.526;8.538;2023-07-02T11:12:36;30.57;;;16.63;;
73023;SDS011;61199;47.526;8.538;2023-07-02T11:15:12;28.90;;;16.20;;
73023;SDS011;61199;47.526;8.538;2023-07-02T11:17:40;32.07;;;16.90;;
73023;SDS011;61199;47.526;8.538;2023-07-02T11:20:09;30.10;;;16.30;;
73023;SDS011;61199;47.526;8.538;2023-07-02T11:22:37;30.10;;;16.67;;
73023;SDS011;61199;47.526;8.538;2023-07-02T11:25:11;29.90;;;16.40;;
73023;SDS011;61199;47.526;8.538;2023-07-02T11:27:40;30.83;;;16.93;;
73023;SDS011;61199;47.526;8.538;2023-07-02T11:30:07;30.77;;;17.80;;
73023;SDS011;61199;47.526;8.538;2023-07-02T11:32:50;32.70;;;18.13;;
73023;SDS011;61199;47.526;8.538;2023-07-02T11:35:18;29.13;;;17.43;;
73023;SDS011;61199;47.526;8.538;2023-07-02T11:37:45;39.67;;;17.77;;
73023;SDS011;61199;47.526;8.538;2023-07-02T11:40:12;39.80;;;18.10;;
73023;SDS011;61199;47.526;8.538;2023-07-02T11:42:42;39.57;;;17.60;;
73023;SDS011;61199;47.526;8.538;2023-07-02T11:45:09;35.30;;;18.63;;
73023;SDS011;61199;47.526;8.538;2023-07-02T11:47:37;33.20;;;17.60;;
73023;SDS011;61199;47.526;8.538;2023-07-02T11:50:05;30.80;;;18.03;;
73023;SDS011;61199;47.526;8.538;2023-07-02T11:52:50;28.90;;;17.07;;
73023;SDS011;61199;47.526;8.538;2023-07-02T11:55:16;33.30;;;17.30;;
73023;SDS011;61199;47.526;8.538;2023-07-02T11:57:43;31.70;;;17.80;;
73023;SDS011;61199;47.526;8.538;2023-07-02T12:00:10;31.37;;;16.57;;
73023;SDS011;61199;47.526;8.538;2023-07-02T12:02:36;30.70;;;16.70;;
73023;SDS011;61199;47.526;8.538;2023-07-02T12:05:03;33.90;;;16.80;;
73023;SDS011;61199;47.526;8.538;2023-07-02T12:07:32;29.13;;;15.93;;
73023;SDS011;61199;47.526;8.538;2023-07-02T12:09:59;29.90;;;15.73;;
73023;SDS011;61199;47.526;8.538;2023-07-02T12:12:25;36.37;;;16.47;;
73023;SDS011;61199;47.526;8.538;2023-07-02T12:14:52;25.50;;;16.00;;
73023;SDS011;61199;47.526;8.538;2023-07-02T12:17:18;29.03;;;16.73;;
73023;SDS011;61199;47.526;8.538;2023-07-02T12:19:45;34.00;;;17.70;;
73023;SDS011;61199;47.526;8.538;2023-07-02T12:22:11;32.33;;;16.87;;
73023;SDS011;61199;47.526;8.538;2023-07-02T12:24:37;30.50;;;17.03;;
73023;SDS011;61199;47.526;8.538;2023-07-02T12:27:04;32.77;;;17.43;;
73023;SDS011;61199;47.526;8.538;2023-07-02T12:29:31;38.10;;;17.77;;
73023;SDS011;61199;47.526;8.538;2023-07-02T12:31:58;62.97;;;27.23;;
73023;SDS011;61199;47.526;8.538;2023-07-02T12:34:24;27.47;;;16.00;;
73023;SDS011;61199;47.526;8.538;2023-07-02T12:36:51;87.70;;;37.70;;
73023;SDS011;61199;47.526;8.538;2023-07-02T12:39:18;30.53;;;17.43;;
73023;SDS011;61199;47.526;8.538;2023-07-02T12:41:48;30.93;;;17.73;;
73023;SDS011;61199;47.526;8.538;2023-07-02T12:44:14;29.47;;;16.33;;
73023;SDS011;61199;47.526;8.538;2023-07-02T12:46:41;32.10;;;17.00;;
73023;SDS011;61199;47.526;8.538;2023-07-02T12:49:08;23.37;;;13.30;;
73023;SDS011;61199;47.526;8.538;2023-07-02T12:51:34;28.43;;;14.47;;
73023;SDS011;61199;47.526;8.538;2023-07-02T12:54:00;23.90;;;15.03;;
73023;SDS011;61199;47.526;8.538;2023-07-02T12:56:27;25.40;;;13.73;;
73023;SDS011;61199;47.526;8.538;2023-07-02T12:58:53;25.80;;;15.00;;
73023;SDS011;61199;47.526;8.538;2023-07-02T13:01:20;28.10;;;15.80;;
73023;SDS011;61199;47.526;8.538;2023-07-02T13:03:46;35.17;;;14.80;;
73023;SDS011;61199;47.526;8.538;2023-07-02T13:06:13;23.70;;;13.77;;
73023;SDS011;61199;47.526;8.538;2023-07-02T13:08:40;25.70;;;12.57;;
73023;SDS011;61199;47.526;8.538;2023-07-02T13:11:07;26.03;;;12.80;;
73023;SDS011;61199;47.526;8.538;2023-07-02T13:13:34;26.27;;;14.43;;
73023;SDS011;61199;47.526;8.538;2023-07-02T13:16:02;27.40;;;14.80;;
73023;SDS011;61199;47.526;8.538;2023-07-02T13:18:29;25.00;;;15.13;;
73023;SDS011;61199;47.526;8.538;2023-07-02T13:20:55;30.50;;;16.37;;
73023;SDS011;61199;47.526;8.538;2023-07-02T13:23:22;27.70;;;15.37;;
73023;SDS011;61199;47.526;8.538;2023-07-02T13:25:48;32.50;;;14.50;;
73023;SDS011;61199;47.526;8.538;2023-07-02T13:28:15;22.43;;;14.83;;
73023;SDS011;61199;47.526;8.538;2023-07-02T13:30:42;25.80;;;14.57;;
73023;SDS011;61199;47.526;8.538;2023-07-02T13:33:09;26.77;;;15.33;;
73023;SDS011;61199;47.526;8.538;2023-07-02T13:35:36;31.97;;;15.00;;
73023;SDS011;61199;47.526;8.538;2023-07-02T13:38:03;26.00;;;14.57;;
73023;SDS011;61199;47.526;8.538;2023-07-02T13:40:31;27.20;;;14.10;;
73023;SDS011;61199;47.526;8.538;2023-07-02T13:42:57;25.27;;;13.83;;
73023;SDS011;61199;47.526;8.538;2023-07-02T13:45:24;25.90;;;13.70;;
73023;SDS011;61199;47.526;8.538;2023-07-02T13:47:50;20.00;;;12.77;;
73023;SDS011;61199;47.526;8.538;2023-07-02T13:50:16;25.83;;;13.73;;
73023;SDS011;61199;47.526;8.538;2023-07-02T13:52:43;25.23;;;13.83;;
73023;SDS011;61199;47.526;8.538;2023-07-02T13:55:10;25.43;;;14.63;;
73023;SDS011;61199;47.526;8.538;2023-07-02T13:57:36;22.97;;;12.70;;
73023;SDS011;61199;47.526;8.538;2023-07-02T14:00:03;24.53;;;13.50;;
73023;SDS011;61199;47.526;8.538;2023-07-02T14:02:30;20.70;;;12.30;;
73023;SDS011;61199;47.526;8.538;2023-07-02T14:04:58;23.57;;;13.13;;
73023;SDS011;61199;47.526;8.538;2023-07-02T14:07:26;25.80;;;13.80;;
73023;SDS011;61199;47.526;8.538;2023-07-02T14:09:52;23.23;;;13.13;;
73023;SDS011;61199;47.526;8.538;2023-07-02T14:12:21;27.07;;;13.23;;
73023;SDS011;61199;47.526;8.538;2023-07-02T14:14:47;21.33;;;12.53;;
73023;SDS011;61199;47.526;8.538;2023-07-02T14:17:14;20.97;;;12.93;;
73023;SDS011;61199;47.526;8.538;2023-07-02T14:19:40;29.87;;;12.20;;
73023;SDS011;61199;47.526;8.538;2023-07-02T14:22:06;21.10;;;11.13;;
73023;SDS011;61199;47.526;8.538;2023-07-02T14:24:33;22.03;;;11.40;;
73023;SDS011;61199;47.526;8.538;2023-07-02T14:27:00;20.37;;;10.77;;
73023;SDS011;61199;47.526;8.538;2023-07-02T14:29:27;17.63;;;10.00;;
73023;SDS011;61199;47.526;8.538;2023-07-02T14:31:53;22.80;;;11.47;;
73023;SDS011;61199;47.526;8.538;2023-07-02T14:34:20;18.50;;;10.73;;
73023;SDS011;61199;47.526;8.538;2023-07-02T14:36:47;21.07;;;10.60;;